Time;durP1;ratioP1;P1;durP2;ratioP2;P2;SDS_P1;SDS_P2;PMS_P1;PMS_P2;Temp;Humidity;BMP_temperature;BMP_pressure;BME280_temperature;BME280_humidity;BME280_pressure;Samples;Min_cycle;Max_cycle;Signal;HPM_P1;HPM_P2
2022/04/20 00:00:09;;;;;;;1.25;1.15;;;18.90;51.60;;;;;;5133579;28;20173;-72
2022/04/20 00:02:34;;;;;;;1.27;1.17;;;18.80;51.60;;;;;;5135595;27;20176;-73
2022/04/20 00:05:00;;;;;;;1.02;1.02;;;18.80;51.60;;;;;;5137443;27;20215;-72
2022/04/20 00:07:26;;;;;;;1.20;1.10;;;18.90;51.60;;;;;;5138036;27;20173;-72
2022/04/20 00:09:51;;;;;;;2.08;1.08;;;18.80;51.60;;;;;;5136790;27;20524;-73
2022/04/20 00:12:17;;;;;;;1.00;1.00;;;18.80;51.60;;;;;;5137626;27;20180;-74
2022/04/20 00:14:42;;;;;;;1.10;1.10;;;18.80;51.60;;;;;;5137218;27;20172;-73
2022/04/20 00:17:08;;;;;;;1.17;1.10;;;18.80;51.70;;;;;;5136981;27;20255;-74
2022/04/20 00:19:33;;;;;;;1.38;1.08;;;18.80;51.70;;;;;;5137681;27;20171;-73
2022/04/20 00:21:59;;;;;;;1.10;1.10;;;18.80;51.60;;;;;;5137129;27;20176;-74
2022/04/20 00:24:24;;;;;;;1.20;1.08;;;18.80;51.60;;;;;;5136875;27;20627;-73
2022/04/20 00:26:50;;;;;;;1.27;1.05;;;18.80;51.70;;;;;;5137439;27;20676;-73
2022/04/20 00:29:15;;;;;;;1.60;1.00;;;18.80;51.60;;;;;;5137345;27;20171;-72
2022/04/20 00:31:41;;;;;;;1.83;1.30;;;18.80;51.70;;;;;;5136305;27;20552;-71
2022/04/20 00:34:06;;;;;;;1.20;1.05;;;18.80;51.70;;;;;;5137427;27;20177;-72
2022/04/20 00:36:32;;;;;;;1.20;1.10;;;18.70;51.70;;;;;;5137371;27;20236;-72
2022/04/20 00:38:58;;;;;;;1.15;1.13;;;18.70;51.70;;;;;;5136063;27;20232;-73
2022/04/20 00:41:23;;;;;;;1.38;1.27;;;18.70;51.70;;;;;;5118940;27;20632;-73
2022/04/20 00:43:51;;;;;;;1.10;1.00;;;18.70;51.70;;;;;;5118476;27;20673;-73
2022/04/20 00:46:19;;;;;;;1.52;1.38;;;18.70;51.70;;;;;;5118607;27;20165;-74
2022/04/20 00:48:44;;;;;;;1.42;1.20;;;18.70;51.70;;;;;;5136878;27;20180;-73
2022/04/20 00:51:10;;;;;;;1.10;1.00;;;18.70;51.70;;;;;;5137008;27;20173;-73
2022/04/20 00:53:35;;;;;;;0.93;0.93;;;18.70;51.70;;;;;;5135929;27;20176;-72
2022/04/20 00:56:01;;;;;;;1.63;1.25;;;18.70;51.70;;;;;;5136947;27;20288;-73
2022/04/20 00:58:26;;;;;;;1.88;1.40;;;18.70;51.70;;;;;;5136645;27;20566;-73
2022/04/20 01:00:52;;;;;;;1.05;1.05;;;18.70;51.70;;;;;;5135671;27;20497;-73
2022/04/20 01:03:17;;;;;;;1.17;1.08;;;18.70;51.70;;;;;;5136800;27;20231;-72
2022/04/20 01:05:43;;;;;;;1.55;1.40;;;18.70;51.70;;;;;;5136335;27;20168;-72
2022/04/20 01:08:08;;;;;;;1.08;0.98;;;18.70;51.70;;;;;;5135978;27;20187;-72
2022/04/20 01:10:34;;;;;;;1.13;1.13;;;18.70;51.70;;;;;;5118312;27;20176;-72
2022/04/20 01:12:59;;;;;;;1.08;1.08;;;18.70;51.70;;;;;;5136069;27;20172;-73
2022/04/20 01:15:25;;;;;;;1.58;1.10;;;18.60;51.60;;;;;;5117297;27;20708;-73
2022/04/20 01:17:50;;;;;;;1.20;1.10;;;18.60;51.70;;;;;;5136041;27;20670;-73
2022/04/20 01:20:16;;;;;;;0.98;0.98;;;18.60;51.70;;;;;;5135902;27;20259;-74
2022/04/20 01:22:42;;;;;;;1.40;1.05;;;18.60;51.70;;;;;;5136157;27;20183;-73
2022/04/20 01:25:08;;;;;;;1.30;1.20;;;18.60;51.70;;;;;;5136168;27;20258;-73
2022/04/20 01:27:34;;;;;;;1.67;1.30;;;18.60;51.70;;;;;;5135484;27;20539;-73
2022/04/20 01:30:00;;;;;;;1.48;1.35;;;18.60;51.70;;;;;;5118068;27;20183;-72
2022/04/20 01:32:25;;;;;;;1.10;1.10;;;18.60;51.70;;;;;;5136264;27;20169;-71
2022/04/20 01:34:52;;;;;;;1.52;1.27;;;18.60;51.70;;;;;;5135298;27;20171;-72
2022/04/20 01:37:18;;;;;;;1.10;1.10;;;18.60;51.70;;;;;;5136050;27;20598;-71
2022/04/20 01:39:46;;;;;;;1.17;1.08;;;18.60;51.70;;;;;;5135793;27;20172;-72
2022/04/20 01:42:11;;;;;;;1.13;1.02;;;18.60;51.70;;;;;;5135324;27;20169;-73
2022/04/20 01:44:37;;;;;;;1.15;1.10;;;18.60;51.70;;;;;;5135779;27;20279;-73
2022/04/20 01:47:03;;;;;;;1.00;1.00;;;18.60;51.70;;;;;;5136035;27;20635;-72
2022/04/20 01:49:28;;;;;;;1.27;1.27;;;18.50;51.70;;;;;;5135386;27;20275;-72
2022/04/20 01:51:54;;;;;;;1.10;1.00;;;18.60;51.80;;;;;;5135471;27;20184;-73
2022/04/20 01:54:19;;;;;;;1.50;1.40;;;18.60;51.80;;;;;;5135848;27;20168;-72
2022/04/20 01:56:46;;;;;;;1.33;1.23;;;18.60;52.40;;;;;;5134533;27;20699;-74
2022/04/20 01:59:12;;;;;;;1.10;1.00;;;18.50;51.80;;;;;;5135606;27;20646;-73
2022/04/20 02:04:22;;;;;;;1.10;1.00;;;18.50;51.80;;;;;;5135099;27;20242;-72
2022/04/20 02:06:48;;;;;;;1.20;1.15;;;18.50;51.80;;;;;;5135487;27;20576;-73
2022/04/20 02:09:13;;;;;;;1.25;1.10;;;18.50;51.80;;;;;;5135345;27;20512;-73
2022/04/20 02:11:39;;;;;;;1.02;0.90;;;18.50;51.80;;;;;;5134600;27;20168;-73
2022/04/20 02:14:04;;;;;;;1.40;1.30;;;18.50;51.80;;;;;;5135571;27;20218;-73
2022/04/20 02:16:30;;;;;;;1.35;1.25;;;18.50;51.80;;;;;;5134673;27;20164;-73
2022/04/20 02:18:56;;;;;;;1.50;1.00;;;18.50;51.80;;;;;;5134920;27;20646;-73
2022/04/20 02:21:21;;;;;;;1.95;1.30;;;18.50;51.80;;;;;;5135182;27;20176;-73
2022/04/20 02:23:47;;;;;;;0.90;0.90;;;18.50;51.80;;;;;;5134023;27;20172;-73
2022/04/20 02:26:12;;;;;;;1.10;1.00;;;18.50;51.80;;;;;;5134046;27;20172;-72
2022/04/20 02:28:38;;;;;;;1.10;1.00;;;18.40;51.70;;;;;;5134782;27;20626;-73
2022/04/20 02:31:03;;;;;;;0.90;0.90;;;18.50;51.80;;;;;;5134276;27;20182;-72
2022/04/20 02:33:29;;;;;;;1.25;1.15;;;18.50;51.80;;;;;;5135124;27;20176;-71
2022/04/20 02:35:56;;;;;;;1.25;1.10;;;18.50;51.80;;;;;;5134588;27;20541;-72
2022/04/20 02:38:21;;;;;;;1.00;1.00;;;18.50;51.80;;;;;;5115624;27;20257;-72
2022/04/20 02:40:47;;;;;;;1.08;1.08;;;18.40;51.70;;;;;;5134724;27;20169;-73
2022/04/20 02:43:12;;;;;;;0.95;0.95;;;18.40;51.70;;;;;;5116377;27;20259;-73
2022/04/20 02:45:38;;;;;;;1.33;1.23;;;18.40;51.70;;;;;;5133687;27;20176;-74
2022/04/20 02:48:03;;;;;;;1.10;1.00;;;18.40;51.80;;;;;;5116549;27;20721;-73
2022/04/20 02:50:29;;;;;;;0.90;0.90;;;18.40;51.80;;;;;;5134615;27;20629;-73
2022/04/20 02:52:55;;;;;;;0.95;0.95;;;18.40;51.70;;;;;;5133588;27;20232;-73
2022/04/20 02:55:21;;;;;;;1.00;1.00;;;18.40;51.80;;;;;;5134716;27;20173;-73
2022/04/20 02:57:46;;;;;;;1.02;1.02;;;18.40;51.80;;;;;;5134029;27;20223;-73
2022/04/20 03:00:12;;;;;;;1.17;1.08;;;18.40;51.80;;;;;;5133768;27;20192;-72
2022/04/20 03:02:38;;;;;;;1.20;1.10;;;18.40;51.80;;;;;;5115717;27;20276;-73
2022/04/20 03:05:04;;;;;;;1.10;1.00;;;18.40;51.80;;;;;;5134382;27;20639;-72
2022/04/20 03:07:30;;;;;;;1.23;1.13;;;18.30;51.70;;;;;;5133485;27;20180;-72
2022/04/20 03:09:55;;;;;;;1.00;1.00;;;18.40;51.80;;;;;;5134160;27;20168;-73
2022/04/20 03:12:21;;;;;;;1.08;1.08;;;18.40;51.80;;;;;;5134390;27;20540;-73
2022/04/20 03:14:46;;;;;;;1.10;1.00;;;18.40;51.80;;;;;;5133337;27;20622;-74
2022/04/20 03:17:12;;;;;;;1.10;1.00;;;18.40;51.90;;;;;;5134191;27;20263;-73
2022/04/20 03:19:38;;;;;;;1.38;1.02;;;18.40;51.90;;;;;;5133876;27;20614;-73
2022/04/20 03:22:03;;;;;;;1.15;1.10;;;18.40;51.90;;;;;;5133299;27;20700;-73
2022/04/20 03:24:29;;;;;;;1.10;1.10;;;18.30;51.80;;;;;;5134217;27;20204;-73
2022/04/20 03:26:55;;;;;;;0.98;0.98;;;18.30;51.80;;;;;;5133138;27;20175;-73
2022/04/20 03:29:20;;;;;;;1.00;1.00;;;18.40;51.90;;;;;;5134067;27;20172;-72
2022/04/20 03:31:46;;;;;;;1.00;1.00;;;18.30;51.90;;;;;;5133705;27;20564;-72
2022/04/20 03:34:12;;;;;;;1.30;1.20;;;18.30;51.90;;;;;;5133161;27;20583;-72
2022/04/20 03:36:37;;;;;;;1.33;1.23;;;18.30;51.90;;;;;;5114954;27;20537;-72
2022/04/20 03:39:03;;;;;;;0.80;0.80;;;18.30;51.90;;;;;;5133893;27;20218;-73
2022/04/20 03:41:28;;;;;;;0.90;0.90;;;18.30;51.90;;;;;;5133133;27;20177;-73
2022/04/20 03:43:54;;;;;;;1.02;0.95;;;18.30;51.90;;;;;;5133612;27;20215;-73
2022/04/20 03:46:21;;;;;;;0.90;0.90;;;18.30;51.90;;;;;;5133722;27;20259;-73
2022/04/20 03:48:46;;;;;;;0.90;0.90;;;18.30;51.90;;;;;;5132677;27;20181;-73
2022/04/20 03:51:12;;;;;;;1.05;1.00;;;18.30;51.90;;;;;;5133733;27;20172;-73
2022/04/20 03:53:37;;;;;;;1.10;1.05;;;18.30;51.90;;;;;;5133157;27;20168;-73
2022/04/20 03:56:03;;;;;;;1.50;1.40;;;18.20;51.80;;;;;;5133081;27;20244;-74
2022/04/20 03:58:29;;;;;;;1.10;1.10;;;18.20;51.80;;;;;;5133582;28;20271;-73
2022/04/20 04:00:54;;;;;;;1.30;1.20;;;18.20;51.80;;;;;;5133212;28;20722;-73
2022/04/20 04:03:22;;;;;;;1.10;1.00;;;18.20;51.80;;;;;;5132753;28;20224;-73
2022/04/20 04:05:48;;;;;;;0.93;0.93;;;18.20;51.90;;;;;;5133354;28;20168;-72
2022/04/20 04:08:13;;;;;;;1.00;1.00;;;18.20;51.90;;;;;;5133726;28;20164;-73
2022/04/20 04:10:40;;;;;;;1.35;0.90;;;18.20;51.90;;;;;;5132706;28;20164;-73
2022/04/20 04:13:05;;;;;;;1.27;1.20;;;18.20;51.90;;;;;;5133584;28;20188;-73
2022/04/20 04:15:31;;;;;;;1.10;1.10;;;18.20;51.90;;;;;;5133570;28;20164;-73
2022/04/20 04:17:59;;;;;;;1.00;1.00;;;18.20;51.90;;;;;;5132445;28;20196;-73
2022/04/20 04:20:26;;;;;;;0.82;0.82;;;18.20;51.90;;;;;;5133297;28;20252;-74
2022/04/20 04:22:51;;;;;;;1.25;1.15;;;18.20;51.90;;;;;;5133213;28;20184;-74
2022/04/20 04:25:17;;;;;;;1.38;1.27;;;18.20;51.90;;;;;;5132678;28;20221;-73
2022/04/20 04:27:43;;;;;;;0.93;0.93;;;18.20;51.90;;;;;;5133112;28;20665;-73
2022/04/20 04:30:09;;;;;;;1.10;1.00;;;18.10;51.90;;;;;;5132644;28;20185;-72
2022/04/20 04:32:34;;;;;;;1.02;0.93;;;18.20;51.90;;;;;;5133059;28;20173;-72
2022/04/20 04:35:02;;;;;;;1.08;0.98;;;18.20;51.90;;;;;;5133138;28;20591;-72
2022/04/20 04:37:32;;;;;;;0.98;0.90;;;18.20;51.90;;;;;;5132396;28;20674;-72
2022/04/20 04:39:57;;;;;;;0.90;0.90;;;18.20;51.90;;;;;;5133068;28;20173;-72
2022/04/20 04:42:27;;;;;;;1.05;0.95;;;18.20;51.90;;;;;;5133102;28;20177;-73
2022/04/20 04:44:53;;;;;;;0.90;0.90;;;18.20;51.90;;;;;;5097865;28;20169;-74
2022/04/20 04:50:03;;;;;;;1.05;1.00;;;18.10;51.80;;;;;;5136071;27;20175;-73
2022/04/20 04:52:29;;;;;;;0.70;0.70;;;18.10;51.90;;;;;;5136437;27;20184;-73
2022/04/20 04:54:54;;;;;;;1.13;1.02;;;18.10;51.80;;;;;;5136863;27;20172;-73
2022/04/20 04:57:20;;;;;;;1.30;1.20;;;18.10;51.80;;;;;;5136794;27;20228;-73
2022/04/20 04:59:45;;;;;;;1.02;0.80;;;18.10;51.80;;;;;;5135817;27;20525;-73
2022/04/20 05:02:11;;;;;;;1.10;1.10;;;18.10;51.90;;;;;;5136701;27;20176;-72
2022/04/20 05:04:37;;;;;;;1.02;1.02;;;18.10;51.80;;;;;;5136274;27;20216;-73
2022/04/20 05:07:03;;;;;;;1.10;1.10;;;18.10;51.80;;;;;;5136160;27;20199;-73
2022/04/20 05:09:29;;;;;;;0.90;0.90;;;18.10;51.80;;;;;;5136827;27;20191;-74
2022/04/20 05:11:54;;;;;;;1.17;0.98;;;18.10;51.80;;;;;;5136258;27;20646;-74
2022/04/20 05:14:20;;;;;;;1.30;1.20;;;18.10;51.80;;;;;;5135772;27;20180;-73
2022/04/20 05:16:45;;;;;;;1.08;1.08;;;18.10;51.80;;;;;;5136122;27;20172;-74
2022/04/20 05:19:11;;;;;;;0.90;0.90;;;18.10;52.40;;;;;;5136642;27;20217;-73
2022/04/20 05:21:37;;;;;;;1.00;1.00;;;18.10;51.80;;;;;;5135610;27;20176;-74
2022/04/20 05:24:02;;;;;;;1.00;1.00;;;18.10;51.80;;;;;;5136408;27;20663;-73
2022/04/20 05:26:28;;;;;;;0.95;0.95;;;18.10;51.80;;;;;;5135757;27;20650;-72
2022/04/20 05:28:53;;;;;;;1.25;0.93;;;18.10;51.80;;;;;;5135961;27;20177;-73
2022/04/20 05:31:22;;;;;;;1.02;1.02;;;18.10;51.80;;;;;;5136134;27;20627;-72
2022/04/20 05:33:47;;;;;;;1.35;1.10;;;18.10;51.80;;;;;;5135363;27;20176;-72
2022/04/20 05:36:13;;;;;;;0.77;0.77;;;18.10;51.80;;;;;;5136311;27;20169;-72
2022/04/20 05:41:41;;;;;;;1.10;1.00;;;18.10;51.80;;;;;;5135658;27;20172;-72
2022/04/20 05:44:16;;;;;;;1.17;1.17;;;18.10;51.80;;;;;;5136047;27;20183;-73
2022/04/20 05:46:42;;;;;;;1.25;1.08;;;18.10;52.40;;;;;;5135806;27;20623;-73
2022/04/20 05:49:08;;;;;;;1.23;1.13;;;18.10;51.70;;;;;;5135138;27;20183;-73
2022/04/20 05:51:33;;;;;;;1.65;1.17;;;18.10;51.70;;;;;;5136144;27;20198;-73
2022/04/20 05:53:59;;;;;;;1.20;1.02;;;18.10;51.80;;;;;;5135705;27;20196;-73
2022/04/20 05:56:24;;;;;;;1.00;1.00;;;18.10;51.70;;;;;;5134957;27;20176;-73
2022/04/20 05:58:52;;;;;;;2.63;1.10;;;18.20;51.80;;;;;;5135350;27;20690;-72
2022/04/20 06:01:19;;;;;;;1.42;1.13;;;18.20;51.60;;;;;;5135677;27;20180;-73
2022/04/20 06:03:45;;;;;;;1.70;1.00;;;18.20;51.40;;;;;;5134546;27;20228;-71
2022/04/20 06:06:11;;;;;;;2.80;1.27;;;18.20;51.40;;;;;;5135707;27;20238;-70
2022/04/20 06:08:36;;;;;;;2.38;1.13;;;18.20;51.40;;;;;;5134645;27;20694;-73
2022/04/20 06:11:02;;;;;;;2.88;1.30;;;18.10;51.50;;;;;;5135622;27;20187;-72
2022/04/20 06:13:29;;;;;;;1.80;1.20;;;18.20;51.60;;;;;;5135615;27;20182;-71
2022/04/20 06:15:55;;;;;;;2.20;0.93;;;18.20;51.60;;;;;;5134301;27;20201;-73
2022/04/20 06:18:21;;;;;;;1.33;1.10;;;18.20;51.70;;;;;;5135341;27;20248;-73
2022/04/20 06:20:46;;;;;;;2.17;1.27;;;18.30;51.70;;;;;;5135056;27;20177;-73
2022/04/20 06:23:12;;;;;;;1.52;1.13;;;18.30;51.70;;;;;;5134421;27;20180;-73
2022/04/20 06:25:37;;;;;;;1.55;0.90;;;18.30;51.70;;;;;;5134982;27;20711;-72
2022/04/20 06:28:03;;;;;;;2.70;1.10;;;18.40;51.70;;;;;;5135275;27;20204;-73
2022/04/20 06:30:29;;;;;;;2.33;1.27;;;18.40;51.70;;;;;;5134408;27;20212;-73
2022/04/20 06:32:54;;;;;;;1.67;1.10;;;18.40;51.70;;;;;;5134727;27;20180;-74
2022/04/20 06:35:20;;;;;;;2.15;1.30;;;18.40;51.70;;;;;;5135157;27;20192;-73
2022/04/20 06:37:45;;;;;;;1.63;0.82;;;18.50;51.70;;;;;;5133835;27;20584;-73
2022/04/20 06:40:11;;;;;;;1.67;1.17;;;18.50;51.80;;;;;;5135046;27;20188;-75
2022/04/20 06:42:37;;;;;;;1.52;1.05;;;18.50;51.80;;;;;;5134505;27;20229;-75
2022/04/20 06:45:03;;;;;;;2.22;1.05;;;18.50;51.70;;;;;;5134235;27;20533;-74
2022/04/20 06:47:29;;;;;;;0.80;0.80;;;18.60;51.80;;;;;;5134698;27;20591;-75
2022/04/20 06:49:55;;;;;;;0.85;0.85;;;18.60;51.70;;;;;;5134593;27;20538;-74
2022/04/20 07:00:34;;;;;;;0.73;0.73;;;18.60;51.70;;;;;;5134570;27;20653;-74
2022/04/20 07:03:03;;;;;;;1.05;0.95;;;18.60;51.70;;;;;;5134016;27;20220;-73
2022/04/20 07:05:28;;;;;;;1.88;0.88;;;18.70;51.70;;;;;;5133859;27;20168;-74
2022/04/20 07:07:54;;;;;;;1.50;1.35;;;18.60;51.60;;;;;;5134206;27;20185;-72
2022/04/20 07:10:19;;;;;;;1.55;1.08;;;18.70;51.60;;;;;;5134268;27;20168;-70
2022/04/20 07:12:45;;;;;;;1.73;1.17;;;18.70;51.70;;;;;;5132806;27;20579;-72
2022/04/20 07:15:10;;;;;;;1.40;1.02;;;18.70;51.60;;;;;;5134257;27;20167;-72
2022/04/20 07:17:36;;;;;;;1.13;1.02;;;18.70;51.60;;;;;;5133664;27;20230;-72
2022/04/20 07:20:02;;;;;;;1.50;0.88;;;18.70;51.50;;;;;;5133721;27;20216;-73
2022/04/20 07:22:27;;;;;;;1.10;1.00;;;18.70;51.50;;;;;;5134204;27;20176;-73
2022/04/20 07:24:53;;;;;;;1.20;1.10;;;18.80;51.60;;;;;;5133352;27;20874;-71
2022/04/20 07:27:19;;;;;;;1.75;1.00;;;18.80;51.60;;;;;;5133426;27;20247;-73
2022/04/20 07:29:44;;;;;;;1.10;1.00;;;18.80;51.60;;;;;;5133810;27;20184;-73
2022/04/20 07:32:10;;;;;;;0.98;0.90;;;18.80;51.50;;;;;;5133932;27;20198;-74
2022/04/20 07:34:35;;;;;;;1.40;0.98;;;18.70;51.50;;;;;;5132906;27;20192;-74
2022/04/20 07:37:01;;;;;;;2.28;1.10;;;18.70;51.40;;;;;;5133853;27;20546;-73
2022/04/20 07:39:26;;;;;;;1.95;1.23;;;18.80;51.20;;;;;;5133978;27;20176;-74
2022/04/20 07:41:52;;;;;;;2.00;1.10;;;18.70;51.20;;;;;;5133060;27;20172;-74
2022/04/20 07:44:17;;;;;;;1.70;1.10;;;18.80;51.20;;;;;;5133921;27;20173;-74
2022/04/20 07:46:43;;;;;;;1.50;1.30;;;18.80;51.10;;;;;;5133323;27;20191;-73
2022/04/20 07:51:53;;;;;;;1.50;1.40;;;18.80;51.00;;;;;;5133590;27;20183;-73
2022/04/20 07:54:18;;;;;;;1.55;1.17;;;18.80;51.00;;;;;;5133119;27;20176;-74
2022/04/20 07:56:43;;;;;;;1.40;1.30;;;18.80;50.90;;;;;;5133317;27;20566;-74
2022/04/20 07:59:09;;;;;;;1.80;1.33;;;18.80;50.90;;;;;;5133576;28;20207;-74
2022/04/20 08:01:34;;;;;;;1.27;0.90;;;18.90;50.90;;;;;;5132729;28;20188;-74
2022/04/20 08:04:00;;;;;;;2.65;1.15;;;18.90;50.90;;;;;;5133474;28;20307;-74
2022/04/20 08:06:27;;;;;;;1.27;1.17;;;18.90;51.50;;;;;;5133461;28;20623;-74
2022/04/20 08:08:52;;;;;;;2.88;1.20;;;18.80;50.80;;;;;;5132621;28;20176;-72
2022/04/20 08:11:18;;;;;;;1.65;1.30;;;18.90;50.70;;;;;;5133658;28;20180;-69
2022/04/20 08:16:29;;;;;;;1.60;1.10;;;18.90;50.70;;;;;;5132794;28;20257;-69
2022/04/20 08:18:54;;;;;;;1.40;1.23;;;18.90;50.70;;;;;;5133265;28;20216;-69
2022/04/20 08:21:20;;;;;;;2.47;1.02;;;19.00;50.80;;;;;;5133577;28;20191;-70
2022/04/20 08:23:45;;;;;;;1.88;1.27;;;19.00;50.80;;;;;;5133457;27;20569;-68
2022/04/20 08:26:11;;;;;;;1.10;1.00;;;19.00;50.80;;;;;;5118934;27;20194;-70
2022/04/20 08:28:36;;;;;;;3.92;1.40;;;19.00;50.80;;;;;;5137255;27;20172;-69
2022/04/20 08:31:02;;;;;;;2.08;1.50;;;19.10;50.80;;;;;;5136618;27;20602;-71
2022/04/20 08:33:27;;;;;;;1.13;1.02;;;19.10;50.80;;;;;;5137574;27;20168;-73
2022/04/20 08:35:53;;;;;;;1.27;1.08;;;19.10;50.70;;;;;;5137191;27;20216;-70
2022/04/20 08:38:18;;;;;;;2.67;1.30;;;19.10;50.80;;;;;;5136496;27;20208;-71
2022/04/20 08:40:44;;;;;;;1.55;0.98;;;19.10;50.90;;;;;;5137040;27;20607;-71
2022/04/20 08:43:09;;;;;;;1.48;1.20;;;19.10;50.70;;;;;;5119116;27;20264;-72
2022/04/20 08:45:37;;;;;;;1.27;1.17;;;19.20;50.80;;;;;;5101234;27;20176;-71
2022/04/20 08:48:03;;;;;;;1.30;1.20;;;19.20;50.90;;;;;;5137286;27;20180;-70
2022/04/20 08:50:29;;;;;;;0.88;0.85;;;19.20;51.00;;;;;;5118540;27;20506;-72
2022/04/20 08:52:55;;;;;;;1.48;1.10;;;19.20;50.90;;;;;;5137036;27;20179;-69
2022/04/20 08:55:20;;;;;;;1.10;1.10;;;19.20;51.00;;;;;;5118768;27;20195;-72
2022/04/20 08:57:50;;;;;;;1.33;1.23;;;19.20;51.10;;;;;;5135816;27;20228;-73
2022/04/20 09:00:21;;;;;;;2.38;1.30;;;19.20;51.00;;;;;;5137036;27;20255;-72
2022/04/20 09:02:47;;;;;;;1.55;1.10;;;19.20;51.00;;;;;;5136418;27;20225;-72
2022/04/20 09:05:13;;;;;;;1.27;1.17;;;19.20;51.00;;;;;;5117775;27;20215;-73
2022/04/20 09:07:38;;;;;;;2.38;1.20;;;19.30;51.10;;;;;;5136765;27;20200;-73
2022/04/20 09:10:04;;;;;;;2.03;1.08;;;19.20;51.10;;;;;;5136448;27;20271;-70
2022/04/20 09:12:30;;;;;;;3.17;1.30;;;19.30;51.10;;;;;;5136363;27;20179;-72
2022/04/20 09:14:56;;;;;;;2.42;1.23;;;19.30;51.30;;;;;;5136425;27;20180;-70
2022/04/20 09:17:23;;;;;;;1.15;1.00;;;19.40;51.00;;;;;;5136445;27;20233;-71
2022/04/20 09:19:51;;;;;;;1.55;1.20;;;19.40;51.00;;;;;;5135550;27;20175;-71
2022/04/20 09:22:17;;;;;;;1.02;0.95;;;19.40;51.00;;;;;;5136310;27;20172;-70
2022/04/20 09:25:12;;;;;;;1.67;1.05;;;19.40;51.00;;;;;;5136181;27;20195;-70
2022/04/20 09:27:39;;;;;;;1.63;1.08;;;19.40;50.80;;;;;;5135347;27;20176;-71
2022/04/20 09:30:14;;;;;;;2.92;1.63;;;19.40;50.90;;;;;;5136585;27;20183;-73
2022/04/20 09:32:41;;;;;;;2.03;1.20;;;19.40;50.80;;;;;;5118515;27;20165;-75
2022/04/20 09:35:12;;;;;;;1.52;1.00;;;19.40;50.80;;;;;;5135643;27;20177;-73
2022/04/20 09:37:38;;;;;;;5.10;1.27;;;19.40;50.80;;;;;;5135917;27;20291;-75
2022/04/20 09:40:05;;;;;;;1.30;1.15;;;19.40;50.80;;;;;;5135449;27;20263;-74
2022/04/20 09:42:31;;;;;;;3.03;1.20;;;19.40;50.80;;;;;;5136044;27;20172;-75
2022/04/20 09:45:00;;;;;;;1.27;1.08;;;19.40;50.70;;;;;;5135637;27;20176;-72
2022/04/20 09:50:25;;;;;;;2.22;1.33;;;19.50;50.70;;;;;;5135985;27;20217;-72
2022/04/20 09:52:55;;;;;;;1.30;1.20;;;19.50;50.70;;;;;;5135635;27;20642;-71
2022/04/20 09:55:34;;;;;;;2.03;1.08;;;19.50;50.70;;;;;;5135287;27;20255;-72
2022/04/20 09:58:12;;;;;;;2.60;1.33;;;19.60;50.70;;;;;;5135392;27;20299;-73
2022/04/20 10:00:42;;;;;;;1.85;1.10;;;19.60;50.60;;;;;;5135110;27;20179;-75
2022/04/20 10:03:08;;;;;;;2.20;1.10;;;19.60;50.70;;;;;;5135451;27;20220;-72
2022/04/20 10:05:34;;;;;;;2.97;1.00;;;19.60;50.70;;;;;;5135705;27;20184;-72
2022/04/20 10:08:04;;;;;;;1.67;1.40;;;19.60;50.60;;;;;;5134945;27;20179;-71
2022/04/20 10:10:30;;;;;;;1.55;1.20;;;19.70;50.60;;;;;;5135589;27;20193;-68
2022/04/20 10:12:55;;;;;;;1.25;0.90;;;19.70;50.60;;;;;;5135130;27;20213;-69
2022/04/20 10:18:06;;;;;;;1.83;1.17;;;19.70;51.20;;;;;;5135398;27;20227;-68
2022/04/20 10:20:35;;;;;;;1.23;1.13;;;19.70;50.50;;;;;;5135292;27;20627;-69
2022/04/20 10:23:02;;;;;;;2.67;1.17;;;19.70;50.50;;;;;;5116261;27;20180;-70
2022/04/20 10:25:28;;;;;;;2.40;1.52;;;19.70;50.50;;;;;;5135081;27;20615;-70
2022/04/20 10:28:06;;;;;;;2.80;1.30;;;19.70;50.40;;;;;;5134919;27;20183;-71
2022/04/20 10:31:01;;;;;;;1.30;1.20;;;19.70;50.40;;;;;;5134713;27;20179;-70
2022/04/20 10:33:26;;;;;;;1.60;1.10;;;19.80;50.50;;;;;;5123775;27;20185;-73
2022/04/20 10:36:03;;;;;;;3.20;1.05;;;19.80;50.50;;;;;;5115757;27;20584;-73
2022/04/20 10:38:32;;;;;;;2.05;1.15;;;19.80;50.50;;;;;;5135159;27;20265;-73
2022/04/20 10:41:02;;;;;;;1.60;1.00;;;19.80;50.40;;;;;;5134512;27;20628;-73
2022/04/20 10:43:28;;;;;;;1.58;1.23;;;19.80;50.30;;;;;;5134101;27;20176;-72
2022/04/20 10:46:07;;;;;;;3.00;1.20;;;19.80;50.50;;;;;;5134193;27;20302;-72
2022/04/20 10:49:02;;;;;;;2.03;1.20;;;19.80;50.40;;;;;;5134558;27;20573;-71
2022/04/20 10:51:34;;;;;;;5.40;1.45;;;19.90;50.50;;;;;;5133944;27;20176;-71
2022/04/20 10:54:17;;;;;;;1.15;1.00;;;19.90;50.50;;;;;;5134611;27;20172;-72
2022/04/20 10:57:01;;;;;;;2.00;1.25;;;19.90;50.50;;;;;;5134223;27;20176;-73
2022/04/20 10:59:30;;;;;;;1.20;0.90;;;19.90;50.50;;;;;;5134447;27;20236;-73
2022/04/20 11:01:59;;;;;;;1.38;1.00;;;19.90;50.50;;;;;;5134139;27;20646;-73
2022/04/20 11:04:50;;;;;;;4.25;1.50;;;20.00;50.40;;;;;;5133313;27;20228;-72
2022/04/20 11:07:30;;;;;;;4.82;1.52;;;20.00;50.40;;;;;;5134684;27;20172;-73
2022/04/20 11:09:57;;;;;;;5.25;1.35;;;20.10;50.40;;;;;;5134246;27;20204;-72
2022/04/20 11:18:38;;;;;;;2.88;1.50;;;20.00;50.30;;;;;;5133509;27;20223;-67
2022/04/20 11:21:04;;;;;;;2.47;1.30;;;20.00;50.30;;;;;;5134155;27;20168;-67
2022/04/20 11:23:55;;;;;;;2.92;1.35;;;20.00;50.90;;;;;;5133943;27;20228;-70
2022/04/20 11:26:21;;;;;;;1.92;1.10;;;20.00;50.20;;;;;;5133455;27;20187;-72
2022/04/20 11:28:50;;;;;;;1.33;1.10;;;20.00;50.20;;;;;;5133666;27;20180;-73
2022/04/20 11:31:16;;;;;;;3.38;1.40;;;20.00;50.20;;;;;;5133989;27;20552;-71
2022/04/20 11:33:41;;;;;;;3.05;1.30;;;20.00;50.00;;;;;;5132801;27;20171;-71
2022/04/20 11:36:09;;;;;;;2.38;1.05;;;20.00;50.10;;;;;;5134090;27;20196;-67
2022/04/20 11:38:45;;;;;;;2.95;1.30;;;20.10;50.10;;;;;;5133324;27;20560;-73
2022/04/20 11:41:11;;;;;;;2.40;1.17;;;20.10;50.70;;;;;;5133262;27;20223;-73
2022/04/20 11:43:37;;;;;;;4.30;1.33;;;20.10;50.10;;;;;;5133518;27;20184;-73
2022/04/20 11:46:04;;;;;;;2.38;1.08;;;20.10;50.10;;;;;;5133234;27;20639;-72
2022/04/20 11:48:30;;;;;;;3.53;1.20;;;20.10;50.00;;;;;;5133192;27;20180;-71
2022/04/20 11:51:00;;;;;;;1.88;1.27;;;20.10;50.00;;;;;;5133548;27;20176;-72
2022/04/20 11:53:36;;;;;;;3.03;1.45;;;20.10;50.00;;;;;;5133061;27;20200;-72
2022/04/20 11:56:02;;;;;;;5.55;1.27;;;20.20;50.00;;;;;;5133660;27;20256;-72
2022/04/20 11:58:28;;;;;;;4.25;1.10;;;20.20;49.90;;;;;;5133349;27;20207;-72
2022/04/20 12:01:07;;;;;;;2.25;1.10;;;20.20;49.90;;;;;;5132507;27;20171;-72
2022/04/20 12:03:36;;;;;;;2.65;1.15;;;20.20;49.90;;;;;;5133566;28;20314;-72
2022/04/20 12:06:08;;;;;;;2.22;1.20;;;20.20;49.80;;;;;;5133621;28;20168;-72
2022/04/20 12:08:35;;;;;;;3.42;1.60;;;20.20;49.80;;;;;;5132846;28;20172;-72
2022/04/20 12:11:03;;;;;;;2.10;1.05;;;20.20;49.70;;;;;;5133408;28;20627;-73
2022/04/20 12:13:29;;;;;;;2.78;1.27;;;20.30;49.70;;;;;;5133551;28;20549;-72
2022/04/20 12:16:11;;;;;;;2.63;1.38;;;20.20;49.70;;;;;;5132579;28;20229;-72
2022/04/20 12:18:40;;;;;;;1.00;0.90;;;20.20;49.60;;;;;;5133029;28;20298;-74
2022/04/20 12:21:08;;;;;;;1.60;1.40;;;20.30;49.60;;;;;;5098691;28;20164;-72
2022/04/20 12:23:34;;;;;;;1.60;1.23;;;20.20;49.50;;;;;;5129390;28;20177;-73
2022/04/20 12:26:03;;;;;;;1.52;1.10;;;20.30;49.60;;;;;;5133193;28;20193;-72
2022/04/20 12:28:36;;;;;;;2.13;1.13;;;20.30;49.50;;;;;;5132649;28;20173;-73
2022/04/20 12:31:02;;;;;;;1.65;1.20;;;20.30;49.50;;;;;;5133432;28;20176;-72
2022/04/20 12:33:28;;;;;;;2.40;1.20;;;20.30;49.40;;;;;;5133374;28;20180;-72
2022/04/20 12:36:10;;;;;;;2.13;1.10;;;20.30;49.40;;;;;;5132268;28;20256;-73
2022/04/20 12:38:44;;;;;;;1.75;1.20;;;20.30;49.40;;;;;;5132788;28;20569;-73
2022/04/20 12:41:35;;;;;;;1.40;1.02;;;20.30;49.20;;;;;;5133200;28;20183;-72
2022/04/20 12:44:02;;;;;;;1.58;1.05;;;20.30;49.20;;;;;;5132304;28;20582;-72
2022/04/20 12:46:34;;;;;;;1.48;0.90;;;20.30;49.10;;;;;;5133152;28;20259;-72
2022/04/20 12:49:01;;;;;;;3.92;1.10;;;20.30;49.10;;;;;;5132938;28;20172;-72
2022/04/20 12:51:27;;;;;;;1.40;0.95;;;20.30;49.00;;;;;;5132547;28;20229;-71
2022/04/20 12:53:54;;;;;;;1.58;1.00;;;20.40;49.10;;;;;;5132719;28;20177;-72
2022/04/20 13:02:03;;;;;;;2.05;1.20;;;20.40;49.10;;;;;;5133136;28;20183;-72
2022/04/20 13:04:28;;;;;;;1.67;1.10;;;20.40;49.10;;;;;;5101185;28;20584;-72
2022/04/20 13:06:55;;;;;;;1.70;1.10;;;20.50;49.00;;;;;;5097668;28;20168;-72
2022/04/20 13:09:21;;;;;;;1.92;1.30;;;20.50;48.90;;;;;;5132891;27;20643;-73
2022/04/20 13:11:46;;;;;;;1.05;0.90;;;20.50;48.80;;;;;;5135518;27;20229;-73
2022/04/20 13:14:12;;;;;;;0.90;0.90;;;20.60;48.70;;;;;;5136744;27;20196;-73
2022/04/20 13:16:37;;;;;;;1.63;1.20;;;20.70;48.70;;;;;;5136075;27;20467;-74
2022/04/20 13:19:03;;;;;;;1.52;0.85;;;20.70;48.60;;;;;;5135790;27;20216;-74
2022/04/20 13:21:29;;;;;;;2.42;1.00;;;20.70;48.50;;;;;;5136415;27;20177;-73
2022/04/20 13:23:55;;;;;;;1.92;0.90;;;20.70;48.50;;;;;;5135985;27;20263;-75
2022/04/20 13:29:04;;;;;;;2.03;0.88;;;20.80;48.30;;;;;;5136355;27;20206;-72